Terminal Aerodrome Forecast
Issued by NWS Huntsville, AL

Home | Current Version | Previous Version | Text Only | Print | Product List | Glossary On
Versions: 1 2 3 4 5 6 7 8 9 10 11 12 13 14 15 16 17 18
000
FTUS44 KHUN 230525
TAFHSV
TAF
KHSV 230525Z 2306/2406 04005KT P6SM SKC
      TEMPO 2310/2313 5SM BR
     FM231500 08006KT P6SM SCT250
     FM240200 VRB03KT P6SM SCT150 BKN250=

USA.gov is the U.S. government's official web portal to all federal, state and local government web resources and services.